UKLR/RWN METAR and TAF weather

Enter ICAO airport designator
Station Type Date Time Source
UKLR METAR 2019/10/22 15:00 UTC NOAA

UKLR 221500Z 00000MPS CAVOK 20/10 Q1022 NOSIG


Station Type Date Time Source
UKLR Decoded METAR 2019/10/22 15:00 UTC NOAA

Rivne, Ukraine (UKLR) 50-35N 026-08E
Oct 22, 2019 - 11:00 AM EDT / 2019.10.22 1500 UTC
Wind: Calm:0
Visibility: greater than 7 mile(s):0
Temperature: 68 F (20 C)
Dew Point: 50 F (10 C)
Relative Humidity: 52%
Pressure (altimeter): 30.18 in. Hg (1022 hPa)
ob: UKLR 221500Z 00000MPS CAVOK 20/10 Q1022 NOSIG
cycle: 15

Station Type Date Time Source
UKLR TAF 2019/08/16 12:15 UTC NOAA

TAF TAF UKLR 161105Z 1612/1821 35003MPS 9999 BKN020 SCT023CB

Example: see airport list